Time;durP1;ratioP1;P1;durP2;ratioP2;P2;SDS_P1;SDS_P2;PMS_P1;PMS_P2;Temp;Humidity;BMP_temperature;BMP_pressure;BME280_temperature;BME280_humidity;BME280_pressure;Samples;Min_cycle;Max_cycle;Signal;HPM_P1;HPM_P2
2021/10/20 00:00:06;;;;;;;2.85;1.70;;;;;;;;;;5104680;27;20156;-42
2021/10/20 00:02:32;;;;;;;2.78;1.92;;;;;;;;;;5103546;27;20023;-43
2021/10/20 00:04:58;;;;;;;1.70;1.55;;;;;;;;;;5120756;27;20381;-42
2021/10/20 00:07:24;;;;;;;2.58;2.08;;;;;;;;;;5121671;27;20169;-43
2021/10/20 00:09:50;;;;;;;3.45;2.10;;;;;;;;;;5121488;27;20098;-43
2021/10/20 00:12:17;;;;;;;3.17;1.90;;;;;;;;;;5122358;27;20027;-44
2021/10/20 00:14:43;;;;;;;2.72;2.10;;;;;;;;;;5121410;27;20015;-44
2021/10/20 00:17:09;;;;;;;3.65;1.73;;;;;;;;;;5118882;27;20164;-43
2021/10/20 00:19:35;;;;;;;3.53;2.53;;;;;;;;;;5120881;27;20453;-42
2021/10/20 00:22:01;;;;;;;3.10;1.80;;;;;;;;;;5103323;27;20023;-43
2021/10/20 00:24:27;;;;;;;3.80;1.98;;;;;;;;;;5120782;27;20667;-42
2021/10/20 00:26:52;;;;;;;2.60;1.83;;;;;;;;;;5121214;27;20019;-42
2021/10/20 00:29:18;;;;;;;2.17;1.88;;;;;;;;;;5118171;27;20638;-42
2021/10/20 00:31:44;;;;;;;3.85;2.00;;;;;;;;;;5121755;27;20103;-42
2021/10/20 00:34:10;;;;;;;2.67;2.03;;;;;;;;;;5120335;27;20019;-43
2021/10/20 00:36:36;;;;;;;4.07;2.25;;;;;;;;;;5122319;27;20134;-42
2021/10/20 00:39:03;;;;;;;2.65;1.98;;;;;;;;;;5119299;27;20018;-43
2021/10/20 00:41:30;;;;;;;4.05;1.92;;;;;;;;;;5115347;28;20107;-42
2021/10/20 00:43:56;;;;;;;2.72;2.08;;;;;;;;;;5128723;28;20031;-42
2021/10/20 00:46:26;;;;;;;2.75;1.80;;;;;;;;;;5116382;28;20019;-42
2021/10/20 00:48:52;;;;;;;3.28;2.00;;;;;;;;;;5130772;28;20068;-42
2021/10/20 00:51:18;;;;;;;4.30;2.45;;;;;;;;;;5130183;28;20091;-42
2021/10/20 00:53:44;;;;;;;4.38;1.90;;;;;;;;;;5115528;28;20014;-42
2021/10/20 00:56:10;;;;;;;3.08;2.03;;;;;;;;;;5125533;28;20368;-42
2021/10/20 00:58:37;;;;;;;2.72;1.92;;;;;;;;;;5125249;28;20019;-43
2021/10/20 01:01:03;;;;;;;3.72;2.13;;;;;;;;;;5125108;28;20054;-42
2021/10/20 01:03:29;;;;;;;2.67;1.92;;;;;;;;;;5130323;28;20027;-43
2021/10/20 01:05:55;;;;;;;2.55;2.10;;;;;;;;;;5111833;28;20098;-42
2021/10/20 01:08:21;;;;;;;2.28;2.03;;;;;;;;;;5124287;28;20511;-42
2021/10/20 01:10:47;;;;;;;4.07;2.00;;;;;;;;;;5132505;28;20026;-42
2021/10/20 01:13:13;;;;;;;2.75;2.20;;;;;;;;;;5122986;28;20345;-46
2021/10/20 01:15:39;;;;;;;3.25;1.85;;;;;;;;;;5112328;28;20028;-42
2021/10/20 01:18:05;;;;;;;2.97;2.20;;;;;;;;;;5122813;28;20023;-42
2021/10/20 01:20:33;;;;;;;3.53;2.22;;;;;;;;;;5121703;28;20364;-43
2021/10/20 01:22:59;;;;;;;3.22;2.10;;;;;;;;;;5111671;28;20463;-45
2021/10/20 01:25:25;;;;;;;5.15;2.17;;;;;;;;;;5129348;28;20053;-43
2021/10/20 01:27:51;;;;;;;3.45;2.15;;;;;;;;;;5122961;28;20011;-42
2021/10/20 01:30:17;;;;;;;2.95;2.40;;;;;;;;;;5120449;27;20034;-42
2021/10/20 01:32:43;;;;;;;3.50;2.75;;;;;;;;;;5134327;27;20102;-44
2021/10/20 01:35:09;;;;;;;4.13;2.63;;;;;;;;;;5133117;27;20065;-42
2021/10/20 01:37:36;;;;;;;3.42;2.30;;;;;;;;;;5115649;27;20027;-42
2021/10/20 01:40:04;;;;;;;3.15;2.03;;;;;;;;;;5120515;27;20015;-43
2021/10/20 01:42:30;;;;;;;3.58;2.00;;;;;;;;;;5122930;27;20020;-43
2021/10/20 01:44:57;;;;;;;3.70;2.28;;;;;;;;;;5116527;27;20034;-43
2021/10/20 01:47:23;;;;;;;2.42;2.20;;;;;;;;;;5115727;27;20366;-44
2021/10/20 01:49:49;;;;;;;2.88;2.05;;;;;;;;;;5126102;27;20094;-42
2021/10/20 01:52:16;;;;;;;3.45;1.95;;;;;;;;;;5135054;27;20041;-42
2021/10/20 01:54:42;;;;;;;5.15;2.20;;;;;;;;;;5130873;27;20023;-45
2021/10/20 01:57:08;;;;;;;2.88;2.25;;;;;;;;;;5114169;28;20352;-43
2021/10/20 01:59:34;;;;;;;4.03;1.80;;;;;;;;;;5122542;27;20047;-44
2021/10/20 02:02:00;;;;;;;3.13;2.00;;;;;;;;;;5122503;27;20419;-43
2021/10/20 02:04:26;;;;;;;3.15;2.13;;;;;;;;;;5125209;27;20050;-46
2021/10/20 02:06:52;;;;;;;2.33;1.65;;;;;;;;;;5124623;27;20053;-43
2021/10/20 02:09:18;;;;;;;3.25;1.92;;;;;;;;;;5123637;27;20016;-45
2021/10/20 02:11:44;;;;;;;3.03;2.10;;;;;;;;;;5123055;27;20030;-43
2021/10/20 02:14:11;;;;;;;3.42;2.00;;;;;;;;;;5122489;27;20161;-43
2021/10/20 02:16:38;;;;;;;3.55;2.40;;;;;;;;;;5122894;27;20418;-42
2021/10/20 02:19:04;;;;;;;2.60;1.90;;;;;;;;;;5124528;27;20014;-44
2021/10/20 02:21:30;;;;;;;3.75;2.60;;;;;;;;;;5121515;27;20023;-43
2021/10/20 02:23:56;;;;;;;3.35;2.03;;;;;;;;;;5123582;27;20015;-42
2021/10/20 02:26:23;;;;;;;3.38;2.60;;;;;;;;;;5121184;27;20081;-43
2021/10/20 02:28:49;;;;;;;2.50;2.00;;;;;;;;;;5125240;27;20023;-42
2021/10/20 02:31:15;;;;;;;2.08;1.55;;;;;;;;;;5123148;27;20027;-41
2021/10/20 02:33:41;;;;;;;3.65;1.98;;;;;;;;;;5124777;27;20054;-42
2021/10/20 02:36:08;;;;;;;3.10;1.95;;;;;;;;;;5121206;27;20123;-42
2021/10/20 02:38:34;;;;;;;3.17;1.73;;;;;;;;;;5123651;27;20353;-42
2021/10/20 02:41:00;;;;;;;2.60;2.00;;;;;;;;;;5123965;27;20098;-43
2021/10/20 02:43:26;;;;;;;4.32;2.60;;;;;;;;;;5121802;27;20031;-42
2021/10/20 02:45:52;;;;;;;2.60;2.22;;;;;;;;;;5123219;27;20022;-43
2021/10/20 02:48:18;;;;;;;3.08;1.80;;;;;;;;;;5122599;27;20046;-42
2021/10/20 02:50:45;;;;;;;3.80;2.17;;;;;;;;;;5121937;27;20024;-42
2021/10/20 02:53:10;;;;;;;5.65;2.55;;;;;;;;;;5122523;27;20030;-42
2021/10/20 02:55:39;;;;;;;2.50;1.98;;;;;;;;;;5123640;27;20042;-42
2021/10/20 02:58:05;;;;;;;2.15;1.73;;;;;;;;;;5121146;27;20042;-42
2021/10/20 03:00:31;;;;;;;2.85;1.80;;;;;;;;;;5123841;27;20431;-42
2021/10/20 03:02:57;;;;;;;5.68;2.17;;;;;;;;;;5121114;27;20108;-43
2021/10/20 03:05:23;;;;;;;4.90;2.13;;;;;;;;;;5114329;27;20281;-42
2021/10/20 03:07:50;;;;;;;2.55;1.98;;;;;;;;;;5114014;27;20028;-43
2021/10/20 03:10:17;;;;;;;2.65;1.65;;;;;;;;;;5113063;28;20023;-42
2021/10/20 03:12:43;;;;;;;2.72;2.15;;;;;;;;;;5117819;27;20402;-42
2021/10/20 03:15:10;;;;;;;3.92;2.33;;;;;;;;;;5112865;28;20018;-42
2021/10/20 03:17:37;;;;;;;3.10;2.15;;;;;;;;;;5122269;27;20012;-42
2021/10/20 03:20:03;;;;;;;3.03;1.95;;;;;;;;;;5119416;27;20026;-43
2021/10/20 03:22:29;;;;;;;2.25;2.05;;;;;;;;;;5133593;27;20019;-42
2021/10/20 03:24:55;;;;;;;3.30;1.88;;;;;;;;;;5128212;27;20019;-42
2021/10/20 03:27:21;;;;;;;2.55;1.90;;;;;;;;;;5094618;28;20050;-42
2021/10/20 03:29:47;;;;;;;2.30;1.83;;;;;;;;;;5113363;28;20065;-42
2021/10/20 03:32:13;;;;;;;3.20;2.10;;;;;;;;;;5112686;27;20023;-42
2021/10/20 03:34:39;;;;;;;2.88;2.17;;;;;;;;;;5125631;27;20552;-42
2021/10/20 03:37:05;;;;;;;2.80;1.77;;;;;;;;;;5123295;27;20055;-43
2021/10/20 03:39:31;;;;;;;4.22;1.65;;;;;;;;;;5127923;27;20051;-42
2021/10/20 03:41:57;;;;;;;3.20;2.05;;;;;;;;;;5116698;27;20024;-42
2021/10/20 03:44:23;;;;;;;3.38;1.60;;;;;;;;;;5112167;28;20644;-42
2021/10/20 03:46:49;;;;;;;3.05;2.67;;;;;;;;;;5113411;28;20054;-42
2021/10/20 03:49:15;;;;;;;2.47;1.85;;;;;;;;;;5116654;27;20023;-42
2021/10/20 03:51:41;;;;;;;2.72;1.75;;;;;;;;;;5132831;27;20023;-42
2021/10/20 03:54:07;;;;;;;2.65;1.67;;;;;;;;;;5133074;27;20044;-43
2021/10/20 03:56:33;;;;;;;3.45;2.63;;;;;;;;;;5133113;27;20015;-45
2021/10/20 03:58:59;;;;;;;2.17;1.80;;;;;;;;;;5133266;27;20019;-43
2021/10/20 04:01:26;;;;;;;3.13;1.90;;;;;;;;;;5129099;27;20034;-44
2021/10/20 04:03:52;;;;;;;2.75;2.05;;;;;;;;;;5127974;27;20023;-45
2021/10/20 04:06:18;;;;;;;3.60;2.75;;;;;;;;;;5113528;27;20099;-43
2021/10/20 04:08:46;;;;;;;3.63;2.10;;;;;;;;;;5112712;28;20016;-43
2021/10/20 04:11:12;;;;;;;2.05;1.65;;;;;;;;;;5130698;27;20123;-45
2021/10/20 04:13:38;;;;;;;2.30;1.83;;;;;;;;;;5114089;27;20440;-42
2021/10/20 04:16:04;;;;;;;1.98;1.83;;;;;;;;;;5119647;27;20428;-43
2021/10/20 04:18:30;;;;;;;3.17;1.95;;;;;;;;;;5128309;27;20076;-42
2021/10/20 04:20:56;;;;;;;3.03;1.90;;;;;;;;;;5125891;27;20015;-42
2021/10/20 04:23:22;;;;;;;2.35;2.08;;;;;;;;;;5115038;27;20463;-42
2021/10/20 04:25:48;;;;;;;2.72;1.80;;;;;;;;;;5112512;28;20418;-42
2021/10/20 04:28:14;;;;;;;2.60;1.90;;;;;;;;;;5111691;28;20019;-42
2021/10/20 04:30:40;;;;;;;2.08;1.73;;;;;;;;;;5118651;27;20075;-42
2021/10/20 04:33:06;;;;;;;3.10;2.10;;;;;;;;;;5132111;27;20379;-43
2021/10/20 04:35:32;;;;;;;2.85;2.35;;;;;;;;;;5106963;28;20536;-42
2021/10/20 04:37:58;;;;;;;2.65;1.63;;;;;;;;;;5112108;28;20094;-42
2021/10/20 04:40:24;;;;;;;3.63;2.28;;;;;;;;;;5123840;27;20023;-42
2021/10/20 04:42:50;;;;;;;2.85;1.98;;;;;;;;;;5132394;28;20045;-43
2021/10/20 04:45:16;;;;;;;2.22;1.60;;;;;;;;;;5132001;28;20015;-42
2021/10/20 04:47:42;;;;;;;2.47;1.80;;;;;;;;;;5131281;28;20019;-42
2021/10/20 04:50:09;;;;;;;2.30;1.70;;;;;;;;;;5132000;28;20016;-43
2021/10/20 04:52:36;;;;;;;2.92;2.33;;;;;;;;;;5120736;28;20024;-42
2021/10/20 04:55:03;;;;;;;2.63;1.92;;;;;;;;;;5112162;28;20031;-43
2021/10/20 04:57:29;;;;;;;2.97;1.90;;;;;;;;;;5111511;28;20023;-42
2021/10/20 04:59:56;;;;;;;2.88;1.70;;;;;;;;;;5111981;28;20048;-42
2021/10/20 05:02:22;;;;;;;3.10;1.88;;;;;;;;;;5120289;28;20058;-42
2021/10/20 05:04:48;;;;;;;2.95;1.98;;;;;;;;;;5136393;27;20051;-42
2021/10/20 05:07:14;;;;;;;2.95;1.73;;;;;;;;;;5123459;27;20030;-42
2021/10/20 05:09:41;;;;;;;1.88;1.60;;;;;;;;;;5122042;27;20049;-43
2021/10/20 05:12:07;;;;;;;2.60;1.90;;;;;;;;;;5135607;27;20528;-43
2021/10/20 05:14:34;;;;;;;4.38;1.88;;;;;;;;;;5136609;27;20019;-41
2021/10/20 05:17:00;;;;;;;2.92;1.95;;;;;;;;;;5133970;27;20026;-44
2021/10/20 05:19:26;;;;;;;2.25;1.75;;;;;;;;;;5116859;27;20107;-42
2021/10/20 05:21:52;;;;;;;3.22;1.80;;;;;;;;;;5135710;27;20023;-42
2021/10/20 05:24:18;;;;;;;4.18;2.05;;;;;;;;;;5127953;27;20453;-42
2021/10/20 05:26:46;;;;;;;2.35;1.98;;;;;;;;;;5131320;27;20019;-42
2021/10/20 05:29:12;;;;;;;2.50;1.88;;;;;;;;;;5119794;27;20482;-43
2021/10/20 05:31:38;;;;;;;2.13;1.67;;;;;;;;;;5115419;27;20036;-42
2021/10/20 05:34:04;;;;;;;3.42;2.25;;;;;;;;;;5120577;27;20033;-42
2021/10/20 05:36:30;;;;;;;3.03;2.10;;;;;;;;;;5104079;27;20476;-42
2021/10/20 05:38:56;;;;;;;2.42;1.70;;;;;;;;;;5128901;27;20478;-42
2021/10/20 05:41:22;;;;;;;3.28;2.00;;;;;;;;;;5133881;27;20029;-43
2021/10/20 05:43:48;;;;;;;3.22;1.70;;;;;;;;;;5136201;27;20422;-43
2021/10/20 05:46:14;;;;;;;5.22;1.70;;;;;;;;;;5118987;27;20087;-43
2021/10/20 05:48:40;;;;;;;3.25;1.85;;;;;;;;;;5115443;28;20016;-43
2021/10/20 05:51:06;;;;;;;4.45;1.77;;;;;;;;;;5115299;28;20024;-44
2021/10/20 05:53:32;;;;;;;6.93;2.35;;;;;;;;;;5115089;27;20023;-43
2021/10/20 05:55:58;;;;;;;5.13;2.33;;;;;;;;;;5115200;28;20399;-41
2021/10/20 05:58:24;;;;;;;4.72;2.28;;;;;;;;;;5120011;27;20410;-42
2021/10/20 06:00:50;;;;;;;6.10;2.13;;;;;;;;;;5115142;28;20027;-45
2021/10/20 06:03:16;;;;;;;2.72;1.83;;;;;;;;;;5123384;27;20048;-45
2021/10/20 06:05:42;;;;;;;3.42;2.30;;;;;;;;;;5115206;27;20023;-44
2021/10/20 06:08:08;;;;;;;3.30;1.77;;;;;;;;;;5115298;27;20050;-45
2021/10/20 06:10:35;;;;;;;3.60;2.13;;;;;;;;;;5099967;27;20031;-43
2021/10/20 06:13:01;;;;;;;4.32;1.88;;;;;;;;;;5120754;27;20448;-42
2021/10/20 06:15:26;;;;;;;6.53;2.28;;;;;;;;;;5114846;28;20027;-43
2021/10/20 06:17:53;;;;;;;5.95;2.38;;;;;;;;;;5115086;27;20470;-42
2021/10/20 06:20:18;;;;;;;6.13;2.35;;;;;;;;;;5123200;27;20046;-42
2021/10/20 06:22:45;;;;;;;4.10;2.17;;;;;;;;;;5130572;27;20046;-42
2021/10/20 06:25:11;;;;;;;4.55;2.20;;;;;;;;;;5134397;27;20444;-43
2021/10/20 06:27:38;;;;;;;3.45;2.33;;;;;;;;;;5135027;27;20026;-43
2021/10/20 06:30:04;;;;;;;8.02;2.13;;;;;;;;;;5134417;27;20096;-43
2021/10/20 06:32:31;;;;;;;6.20;2.40;;;;;;;;;;5113559;27;20623;-42
2021/10/20 06:34:57;;;;;;;3.60;2.33;;;;;;;;;;5115865;27;20047;-42
2021/10/20 06:37:23;;;;;;;5.80;2.45;;;;;;;;;;5115578;27;20030;-43
2021/10/20 06:39:49;;;;;;;7.78;2.28;;;;;;;;;;5130179;27;20094;-43
2021/10/20 06:42:15;;;;;;;6.43;2.38;;;;;;;;;;5121585;27;20064;-43
2021/10/20 06:44:41;;;;;;;7.03;2.50;;;;;;;;;;5133487;27;20056;-42
2021/10/20 06:47:07;;;;;;;4.32;2.20;;;;;;;;;;5127498;27;20027;-42
2021/10/20 06:49:33;;;;;;;3.70;2.03;;;;;;;;;;5119083;27;20024;-42
2021/10/20 06:51:59;;;;;;;4.07;2.25;;;;;;;;;;5129536;27;20067;-42
2021/10/20 06:54:25;;;;;;;5.40;2.20;;;;;;;;;;5113362;28;20052;-42
2021/10/20 06:56:52;;;;;;;7.30;2.30;;;;;;;;;;5114235;28;20030;-42
2021/10/20 06:59:18;;;;;;;3.15;2.15;;;;;;;;;;5113551;28;20023;-42
2021/10/20 07:01:45;;;;;;;3.17;2.10;;;;;;;;;;5113445;28;20106;-42
2021/10/20 07:04:11;;;;;;;3.70;2.28;;;;;;;;;;5113219;28;20030;-42
2021/10/20 07:06:38;;;;;;;5.18;2.67;;;;;;;;;;5115138;27;20024;-43
2021/10/20 07:09:04;;;;;;;3.03;2.50;;;;;;;;;;5113272;27;20024;-43
2021/10/20 07:11:31;;;;;;;3.42;2.35;;;;;;;;;;5120423;27;20205;-43
2021/10/20 07:13:57;;;;;;;4.75;2.35;;;;;;;;;;5131236;27;20367;-43
2021/10/20 07:16:23;;;;;;;4.60;2.58;;;;;;;;;;5130687;27;20011;-42
2021/10/20 07:18:50;;;;;;;3.60;2.08;;;;;;;;;;5134218;27;20026;-43
2021/10/20 07:21:16;;;;;;;4.15;2.30;;;;;;;;;;5115268;27;20096;-42
2021/10/20 07:23:42;;;;;;;6.80;2.30;;;;;;;;;;5133095;27;20020;-43
2021/10/20 07:26:08;;;;;;;2.75;2.03;;;;;;;;;;5120880;27;20022;-43
2021/10/20 07:28:34;;;;;;;4.32;2.40;;;;;;;;;;5111836;28;20031;-42
2021/10/20 07:31:00;;;;;;;4.85;2.33;;;;;;;;;;5113480;28;20070;-43
2021/10/20 07:33:26;;;;;;;4.95;2.40;;;;;;;;;;5112672;28;20016;-43
2021/10/20 07:35:52;;;;;;;7.10;1.77;;;;;;;;;;5120633;27;20061;-45
2021/10/20 07:38:18;;;;;;;3.83;2.38;;;;;;;;;;5119722;27;20046;-43
2021/10/20 07:40:44;;;;;;;7.32;2.20;;;;;;;;;;5121492;27;20073;-47
2021/10/20 07:43:10;;;;;;;4.85;2.35;;;;;;;;;;5122970;27;20469;-44
2021/10/20 07:45:37;;;;;;;5.70;2.00;;;;;;;;;;5133178;27;20019;-45
2021/10/20 07:48:04;;;;;;;2.60;1.83;;;;;;;;;;5133063;27;20091;-44
2021/10/20 07:50:32;;;;;;;2.83;1.80;;;;;;;;;;5132732;27;20023;-43
2021/10/20 07:52:58;;;;;;;3.53;2.42;;;;;;;;;;5119442;27;20380;-43
2021/10/20 07:55:24;;;;;;;2.53;1.80;;;;;;;;;;5112021;28;20479;-44
2021/10/20 07:57:50;;;;;;;3.65;2.17;;;;;;;;;;5112881;28;20391;-45
2021/10/20 08:00:17;;;;;;;4.13;2.72;;;;;;;;;;5112173;27;20091;-43
2021/10/20 08:02:43;;;;;;;3.40;1.92;;;;;;;;;;5112914;28;20373;-42
2021/10/20 08:05:14;;;;;;;2.45;1.88;;;;;;;;;;5112653;28;20023;-42
2021/10/20 08:07:46;;;;;;;2.50;2.00;;;;;;;;;;5116387;27;20444;-42
2021/10/20 08:10:16;;;;;;;4.43;2.25;;;;;;;;;;5120969;27;20020;-43
2021/10/20 08:12:45;;;;;;;5.00;2.25;;;;;;;;;;5116239;27;20367;-43
2021/10/20 08:15:11;;;;;;;2.70;1.77;;;;;;;;;;5133216;27;20058;-43
2021/10/20 08:17:38;;;;;;;3.53;2.00;;;;;;;;;;5132482;27;20030;-42
2021/10/20 08:20:06;;;;;;;4.00;2.15;;;;;;;;;;5133040;27;20027;-43
2021/10/20 08:22:32;;;;;;;4.22;2.22;;;;;;;;;;5132405;27;20542;-42
2021/10/20 08:24:58;;;;;;;3.70;1.85;;;;;;;;;;5129051;27;20046;-42
2021/10/20 08:27:24;;;;;;;2.20;1.42;;;;;;;;;;5111845;28;20055;-43
2021/10/20 08:29:50;;;;;;;4.53;2.00;;;;;;;;;;5112401;28;20049;-42
2021/10/20 08:32:16;;;;;;;2.63;1.80;;;;;;;;;;5112080;28;20049;-43
2021/10/20 08:34:42;;;;;;;2.85;2.20;;;;;;;;;;5112435;28;20092;-42
2021/10/20 08:37:08;;;;;;;2.70;1.90;;;;;;;;;;5112532;28;20019;-42
2021/10/20 08:39:34;;;;;;;2.33;1.60;;;;;;;;;;5111117;28;20072;-42
2021/10/20 08:42:00;;;;;;;2.25;1.75;;;;;;;;;;5112522;28;20045;-42
2021/10/20 08:44:27;;;;;;;1.98;1.42;;;;;;;;;;5111531;28;20022;-43
2021/10/20 08:46:53;;;;;;;2.50;1.90;;;;;;;;;;5122690;28;20073;-42
2021/10/20 08:49:20;;;;;;;2.35;1.85;;;;;;;;;;5111036;28;20468;-43
2021/10/20 08:51:46;;;;;;;2.67;1.75;;;;;;;;;;5118277;28;20032;-42
2021/10/20 08:54:13;;;;;;;3.25;1.67;;;;;;;;;;5121496;28;20034;-42
2021/10/20 08:56:43;;;;;;;2.38;1.67;;;;;;;;;;5111707;28;20031;-42
2021/10/20 08:59:10;;;;;;;3.20;1.85;;;;;;;;;;5112258;28;20095;-42
2021/10/20 09:01:36;;;;;;;3.20;1.88;;;;;;;;;;5124471;28;20025;-42
2021/10/20 09:04:09;;;;;;;2.55;1.55;;;;;;;;;;5129000;28;20059;-42
2021/10/20 09:06:35;;;;;;;3.55;1.58;;;;;;;;;;5124301;28;20066;-42
2021/10/20 09:09:04;;;;;;;3.17;1.73;;;;;;;;;;5132043;28;20027;-43
2021/10/20 09:11:33;;;;;;;2.28;1.45;;;;;;;;;;5113927;28;20028;-42
2021/10/20 09:14:01;;;;;;;2.72;1.70;;;;;;;;;;5123416;28;20004;-42
2021/10/20 09:16:27;;;;;;;2.72;1.80;;;;;;;;;;5111361;28;20015;-43
2021/10/20 09:18:53;;;;;;;2.17;1.60;;;;;;;;;;5128140;28;20027;-42
2021/10/20 09:21:19;;;;;;;3.60;1.70;;;;;;;;;;5114044;28;20524;-43
2021/10/20 09:23:46;;;;;;;2.55;1.38;;;;;;;;;;5111671;28;20119;-42
2021/10/20 09:26:12;;;;;;;3.47;1.50;;;;;;;;;;5112101;28;20069;-42
2021/10/20 09:28:39;;;;;;;2.10;1.45;;;;;;;;;;5118501;28;20637;-42
2021/10/20 09:31:06;;;;;;;3.35;1.60;;;;;;;;;;5115798;28;20046;-42
2021/10/20 09:33:36;;;;;;;2.40;1.52;;;;;;;;;;5111222;28;20019;-42
2021/10/20 09:36:10;;;;;;;2.75;1.77;;;;;;;;;;5111888;28;20072;-44
2021/10/20 09:38:38;;;;;;;2.80;1.67;;;;;;;;;;5110994;28;20028;-43
2021/10/20 09:41:06;;;;;;;3.53;2.20;;;;;;;;;;5111607;28;20080;-44
2021/10/20 09:43:32;;;;;;;1.95;1.65;;;;;;;;;;5111154;28;20041;-43
2021/10/20 09:45:58;;;;;;;1.88;1.50;;;;;;;;;;5111686;28;20047;-44
2021/10/20 09:48:26;;;;;;;7.07;1.77;;;;;;;;;;5114123;28;20051;-44
2021/10/20 09:51:03;;;;;;;2.50;1.60;;;;;;;;;;5113076;27;20023;-43
2021/10/20 09:53:31;;;;;;;11.75;1.98;;;;;;;;;;5128115;27;20011;-42
2021/10/20 09:55:59;;;;;;;2.60;1.55;;;;;;;;;;5126704;27;20466;-43
2021/10/20 09:58:25;;;;;;;1.88;1.67;;;;;;;;;;5114620;28;20031;-44
2021/10/20 10:00:54;;;;;;;1.77;1.30;;;;;;;;;;5126219;27;20367;-42
2021/10/20 10:03:20;;;;;;;2.15;1.80;;;;;;;;;;5134960;27;20084;-43
2021/10/20 10:05:46;;;;;;;1.95;1.30;;;;;;;;;;5135762;27;20044;-42
2021/10/20 10:08:12;;;;;;;4.60;1.95;;;;;;;;;;5116363;27;20478;-42
2021/10/20 10:10:38;;;;;;;1.98;1.40;;;;;;;;;;5113899;27;20036;-42
2021/10/20 10:13:10;;;;;;;2.30;1.50;;;;;;;;;;5133277;27;20264;-42
2021/10/20 10:15:38;;;;;;;2.15;1.77;;;;;;;;;;5134832;27;20011;-42
2021/10/20 10:18:04;;;;;;;1.80;1.30;;;;;;;;;;5121138;27;20038;-42
2021/10/20 10:20:32;;;;;;;2.90;1.70;;;;;;;;;;5114737;27;20024;-42
2021/10/20 10:23:07;;;;;;;2.05;1.48;;;;;;;;;;5115036;28;20016;-42
2021/10/20 10:25:36;;;;;;;2.40;1.60;;;;;;;;;;5113939;28;20415;-42
2021/10/20 10:28:05;;;;;;;2.83;1.60;;;;;;;;;;5118900;27;20049;-42
2021/10/20 10:30:33;;;;;;;1.65;1.33;;;;;;;;;;5128482;27;20055;-42
2021/10/20 10:33:01;;;;;;;1.83;1.38;;;;;;;;;;5128007;27;20015;-42
2021/10/20 10:35:32;;;;;;;2.72;1.40;;;;;;;;;;5129071;27;20043;-42
2021/10/20 10:38:02;;;;;;;1.85;1.50;;;;;;;;;;5122997;27;20482;-44
2021/10/20 10:40:32;;;;;;;4.38;1.85;;;;;;;;;;5123756;27;20102;-42
2021/10/20 10:43:03;;;;;;;3.38;1.45;;;;;;;;;;5114504;28;20012;-42
2021/10/20 10:45:30;;;;;;;1.63;1.33;;;;;;;;;;5128198;27;20023;-42
2021/10/20 10:48:10;;;;;;;1.77;1.42;;;;;;;;;;5122684;27;20028;-42
2021/10/20 10:50:53;;;;;;;3.25;1.42;;;;;;;;;;5127421;27;20158;-44
2021/10/20 10:53:45;;;;;;;2.85;1.92;;;;;;;;;;5134540;27;20030;-43
2021/10/20 10:56:14;;;;;;;2.78;1.70;;;;;;;;;;5108472;28;20476;-42
2021/10/20 10:58:53;;;;;;;1.75;1.33;;;;;;;;;;5113872;27;20023;-42
2021/10/20 11:01:45;;;;;;;3.13;1.80;;;;;;;;;;5114031;27;20030;-42
2021/10/20 11:04:11;;;;;;;;;;;;;;;;;;5092567;28;20469;-44
2021/10/20 11:06:37;;;;;;;1.70;1.40;;;;;;;;;;5123374;27;19915;-42
2021/10/20 11:09:04;;;;;;;2.33;1.50;;;;;;;;;;5119922;27;20023;-43
2021/10/20 11:11:30;;;;;;;2.40;1.33;;;;;;;;;;5116444;27;20341;-42
2021/10/20 11:13:59;;;;;;;2.15;1.30;;;;;;;;;;5123499;27;20011;-42
2021/10/20 11:16:25;;;;;;;2.08;1.38;;;;;;;;;;5133914;27;20019;-42
2021/10/20 11:18:55;;;;;;;2.88;1.20;;;;;;;;;;5117882;27;20085;-43
2021/10/20 11:21:22;;;;;;;3.30;1.20;;;;;;;;;;5131331;27;20094;-43
2021/10/20 11:23:48;;;;;;;2.60;1.25;;;;;;;;;;5134034;27;20054;-43
2021/10/20 11:26:14;;;;;;;1.98;1.70;;;;;;;;;;5134112;27;20015;-44
2021/10/20 11:28:41;;;;;;;1.83;1.10;;;;;;;;;;5133213;27;20659;-47
2021/10/20 11:31:10;;;;;;;1.95;1.00;;;;;;;;;;5116300;27;20114;-44
2021/10/20 11:33:36;;;;;;;3.08;1.83;;;;;;;;;;5112780;28;20022;-43
2021/10/20 11:36:02;;;;;;;2.17;1.52;;;;;;;;;;5112935;28;20043;-43
2021/10/20 11:38:33;;;;;;;1.80;1.10;;;;;;;;;;5112748;28;20093;-44
2021/10/20 11:40:59;;;;;;;2.33;1.60;;;;;;;;;;5113150;28;20011;-46
2021/10/20 11:43:27;;;;;;;2.45;1.45;;;;;;;;;;5112530;28;20023;-43
2021/10/20 11:45:54;;;;;;;2.03;1.23;;;;;;;;;;5118807;27;20015;-46
2021/10/20 11:48:22;;;;;;;2.22;1.65;;;;;;;;;;5124051;27;20019;-45
2021/10/20 11:50:54;;;;;;;1.70;1.17;;;;;;;;;;5112245;27;20028;-44
2021/10/20 11:53:20;;;;;;;;;;;;;;;;;;5120683;27;20026;-43
2021/10/20 11:55:47;;;;;;;2.28;1.38;;;;;;;;;;5112367;28;19903;-42
2021/10/20 11:58:23;;;;;;;1.65;1.20;;;;;;;;;;5112980;28;20036;-42
2021/10/20 12:01:07;;;;;;;3.30;1.60;;;;;;;;;;5112529;28;20484;-42
2021/10/20 12:03:34;;;;;;;3.63;1.58;;;;;;;;;;5128363;27;20526;-42
2021/10/20 12:06:02;;;;;;;3.47;1.35;;;;;;;;;;5112753;28;20465;-42
2021/10/20 12:08:29;;;;;;;2.35;1.13;;;;;;;;;;5112127;28;20111;-42
2021/10/20 12:10:55;;;;;;;2.67;1.10;;;;;;;;;;5113172;27;20059;-42
2021/10/20 12:13:21;;;;;;;1.80;1.10;;;;;;;;;;5132525;27;20020;-42
2021/10/20 12:15:49;;;;;;;2.78;1.00;;;;;;;;;;5132683;27;20053;-42
2021/10/20 12:18:16;;;;;;;2.03;1.10;;;;;;;;;;5112789;28;20065;-42
2021/10/20 12:20:48;;;;;;;3.15;1.10;;;;;;;;;;5119837;27;20091;-42
2021/10/20 12:23:14;;;;;;;5.68;1.27;;;;;;;;;;5121834;27;20095;-42
2021/10/20 12:25:40;;;;;;;1.85;1.20;;;;;;;;;;5126280;27;20102;-42
2021/10/20 12:28:10;;;;;;;4.38;1.17;;;;;;;;;;5132386;27;20019;-41
2021/10/20 12:30:37;;;;;;;1.75;1.15;;;;;;;;;;5125053;27;20086;-42
2021/10/20 12:33:07;;;;;;;1.20;1.05;;;;;;;;;;5113166;27;20023;-42
2021/10/20 12:35:33;;;;;;;2.08;1.45;;;;;;;;;;5112492;27;20054;-42
2021/10/20 12:38:02;;;;;;;2.20;1.35;;;;;;;;;;5129851;27;20028;-42
2021/10/20 12:40:28;;;;;;;3.65;1.50;;;;;;;;;;5122105;27;20019;-46
2021/10/20 12:42:56;;;;;;;1.70;1.45;;;;;;;;;;5111849;28;20500;-42
2021/10/20 12:45:23;;;;;;;1.45;1.10;;;;;;;;;;5113570;28;20035;-42
2021/10/20 12:47:51;;;;;;;2.47;1.70;;;;;;;;;;5111642;28;20089;-42
2021/10/20 12:50:18;;;;;;;2.90;1.35;;;;;;;;;;5112388;28;20011;-43
2021/10/20 12:52:44;;;;;;;1.75;1.17;;;;;;;;;;5127563;28;20103;-42
2021/10/20 12:55:12;;;;;;;2.08;1.45;;;;;;;;;;5122864;28;20023;-43
2021/10/20 12:57:39;;;;;;;1.25;1.10;;;;;;;;;;5111221;28;20414;-43
2021/10/20 13:00:26;;;;;;;3.10;1.35;;;;;;;;;;5112321;28;20016;-42
2021/10/20 13:02:53;;;;;;;2.33;1.52;;;;;;;;;;5112022;28;20022;-43
2021/10/20 13:05:19;;;;;;;1.90;1.20;;;;;;;;;;5112080;28;20026;-42
2021/10/20 13:07:45;;;;;;;1.42;1.23;;;;;;;;;;5127802;28;20035;-45
2021/10/20 13:10:13;;;;;;;3.22;1.40;;;;;;;;;;5124957;28;20023;-42
2021/10/20 13:12:40;;;;;;;2.35;1.10;;;;;;;;;;5122747;28;20031;-42
2021/10/20 13:15:06;;;;;;;1.00;0.90;;;;;;;;;;5112574;28;20019;-45
2021/10/20 13:17:37;;;;;;;3.35;1.80;;;;;;;;;;5111600;28;20023;-45
2021/10/20 13:20:03;;;;;;;1.50;1.10;;;;;;;;;;5116005;28;20019;-42
2021/10/20 13:22:29;;;;;;;2.03;1.13;;;;;;;;;;5111115;28;20034;-44
2021/10/20 13:24:55;;;;;;;3.38;1.50;;;;;;;;;;5112386;28;20024;-43
2021/10/20 13:27:21;;;;;;;1.65;1.20;;;;;;;;;;5115877;28;20054;-43
2021/10/20 13:29:47;;;;;;;1.50;0.82;;;;;;;;;;5115260;28;20019;-42
2021/10/20 13:32:13;;;;;;;3.40;1.30;;;;;;;;;;5115803;28;20023;-42
2021/10/20 13:34:39;;;;;;;1.33;1.10;;;;;;;;;;5114939;28;20043;-42
2021/10/20 13:37:06;;;;;;;1.27;1.00;;;;;;;;;;5116001;28;20027;-42
2021/10/20 13:39:34;;;;;;;2.13;1.02;;;;;;;;;;5114925;28;20016;-42
2021/10/20 13:42:00;;;;;;;1.17;0.90;;;;;;;;;;5097374;27;20093;-43
2021/10/20 13:44:26;;;;;;;1.70;1.00;;;;;;;;;;5116361;27;20466;-43
2021/10/20 13:46:52;;;;;;;2.08;1.10;;;;;;;;;;5118421;27;20102;-43
2021/10/20 13:49:18;;;;;;;4.93;2.30;;;;;;;;;;5135587;27;20467;-42
2021/10/20 13:51:44;;;;;;;2.08;1.88;;;;;;;;;;5132998;27;20039;-42
2021/10/20 13:54:10;;;;;;;6.72;1.70;;;;;;;;;;5115847;27;20115;-42
2021/10/20 13:56:39;;;;;;;3.70;1.52;;;;;;;;;;5128799;27;20076;-44
2021/10/20 13:59:05;;;;;;;7.85;2.08;;;;;;;;;;5100006;27;20737;-42
2021/10/20 14:01:32;;;;;;;4.68;1.67;;;;;;;;;;5121380;27;20072;-43
2021/10/20 14:04:02;;;;;;;6.00;1.52;;;;;;;;;;5115466;28;20019;-44
2021/10/20 14:06:34;;;;;;;8.90;1.70;;;;;;;;;;5114412;28;20050;-44
2021/10/20 14:09:00;;;;;;;4.80;1.67;;;;;;;;;;5115046;28;20022;-43
2021/10/20 14:11:27;;;;;;;4.05;1.85;;;;;;;;;;5124525;27;20076;-43
2021/10/20 14:13:53;;;;;;;4.28;1.08;;;;;;;;;;5133327;27;20022;-43
2021/10/20 14:16:19;;;;;;;3.42;1.77;;;;;;;;;;5133676;27;20600;-43
2021/10/20 14:18:45;;;;;;;4.13;1.75;;;;;;;;;;5134785;27;20047;-43
2021/10/20 14:21:12;;;;;;;2.67;1.20;;;;;;;;;;5126707;27;20076;-43
2021/10/20 14:23:39;;;;;;;3.33;1.38;;;;;;;;;;5132355;27;20464;-43
2021/10/20 14:26:05;;;;;;;5.32;1.48;;;;;;;;;;5118273;27;20066;-44
2021/10/20 14:28:33;;;;;;;2.17;1.23;;;;;;;;;;5124162;27;20083;-45
2021/10/20 14:30:59;;;;;;;2.95;1.42;;;;;;;;;;5114412;27;20023;-44
2021/10/20 14:33:25;;;;;;;3.83;1.30;;;;;;;;;;5117576;27;20026;-44
2021/10/20 14:35:51;;;;;;;2.17;1.40;;;;;;;;;;5132348;27;20054;-43
2021/10/20 14:38:17;;;;;;;1.60;1.15;;;;;;;;;;5114609;28;20349;-46
2021/10/20 14:40:44;;;;;;;2.28;1.30;;;;;;;;;;5116583;27;20098;-44